sensor_id;sensor_type;location;lat;lon;timestamp;P1;durP1;ratioP1;P2;durP2;ratioP2
26906;SDS011;14472;56.880;16.658;2023-08-12T00:00:32;2.47;;;2.28;;
26906;SDS011;14472;56.880;16.658;2023-08-12T00:02:59;4.03;;;2.10;;
26906;SDS011;14472;56.880;16.658;2023-08-12T00:05:25;3.50;;;2.22;;
26906;SDS011;14472;56.880;16.658;2023-08-12T00:07:50;2.75;;;2.25;;
26906;SDS011;14472;56.880;16.658;2023-08-12T00:10:16;3.97;;;2.55;;
26906;SDS011;14472;56.880;16.658;2023-08-12T00:12:42;2.45;;;2.25;;
26906;SDS011;14472;56.880;16.658;2023-08-12T00:15:08;4.22;;;2.30;;
26906;SDS011;14472;56.880;16.658;2023-08-12T00:17:35;5.40;;;2.42;;
26906;SDS011;14472;56.880;16.658;2023-08-12T00:20:02;5.03;;;2.40;;
26906;SDS011;14472;56.880;16.658;2023-08-12T00:22:33;2.85;;;2.17;;
26906;SDS011;14472;56.880;16.658;2023-08-12T00:25:00;3.72;;;2.30;;
26906;SDS011;14472;56.880;16.658;2023-08-12T00:27:26;3.03;;;2.33;;
26906;SDS011;14472;56.880;16.658;2023-08-12T00:29:51;2.38;;;2.10;;
26906;SDS011;14472;56.880;16.658;2023-08-12T00:32:18;4.25;;;2.38;;
26906;SDS011;14472;56.880;16.658;2023-08-12T00:34:43;2.53;;;2.33;;
26906;SDS011;14472;56.880;16.658;2023-08-12T00:37:09;3.08;;;2.20;;
26906;SDS011;14472;56.880;16.658;2023-08-12T00:39:35;3.15;;;2.50;;
26906;SDS011;14472;56.880;16.658;2023-08-12T00:42:01;3.58;;;2.90;;
26906;SDS011;14472;56.880;16.658;2023-08-12T00:44:26;6.65;;;3.05;;
26906;SDS011;14472;56.880;16.658;2023-08-12T00:46:52;4.85;;;2.60;;
26906;SDS011;14472;56.880;16.658;2023-08-12T00:49:20;2.80;;;2.60;;
26906;SDS011;14472;56.880;16.658;2023-08-12T00:51:46;3.75;;;2.83;;
26906;SDS011;14472;56.880;16.658;2023-08-12T00:54:14;4.30;;;2.85;;
26906;SDS011;14472;56.880;16.658;2023-08-12T00:56:41;4.05;;;2.42;;
26906;SDS011;14472;56.880;16.658;2023-08-12T00:59:08;3.10;;;2.35;;
26906;SDS011;14472;56.880;16.658;2023-08-12T01:01:35;2.90;;;2.50;;
26906;SDS011;14472;56.880;16.658;2023-08-12T01:04:06;3.42;;;2.30;;
26906;SDS011;14472;56.880;16.658;2023-08-12T01:06:31;4.63;;;2.60;;
26906;SDS011;14472;56.880;16.658;2023-08-12T01:08:58;4.43;;;2.80;;
26906;SDS011;14472;56.880;16.658;2023-08-12T01:11:28;3.13;;;2.45;;
26906;SDS011;14472;56.880;16.658;2023-08-12T01:14:17;2.95;;;2.35;;
26906;SDS011;14472;56.880;16.658;2023-08-12T01:17:07;2.88;;;2.30;;
26906;SDS011;14472;56.880;16.658;2023-08-12T01:19:37;3.45;;;2.35;;
26906;SDS011;14472;56.880;16.658;2023-08-12T01:22:05;2.90;;;2.25;;
26906;SDS011;14472;56.880;16.658;2023-08-12T01:24:34;3.90;;;2.10;;
26906;SDS011;14472;56.880;16.658;2023-08-12T01:27:01;3.00;;;2.38;;
26906;SDS011;14472;56.880;16.658;2023-08-12T01:29:27;3.35;;;2.58;;
26906;SDS011;14472;56.880;16.658;2023-08-12T01:34:50;4.05;;;2.30;;
26906;SDS011;14472;56.880;16.658;2023-08-12T01:37:36;3.67;;;2.20;;
26906;SDS011;14472;56.880;16.658;2023-08-12T01:40:04;3.05;;;2.20;;
26906;SDS011;14472;56.880;16.658;2023-08-12T01:42:32;2.50;;;2.13;;
26906;SDS011;14472;56.880;16.658;2023-08-12T01:44:58;2.47;;;2.28;;
26906;SDS011;14472;56.880;16.658;2023-08-12T01:47:26;3.30;;;2.20;;
26906;SDS011;14472;56.880;16.658;2023-08-12T01:49:55;4.65;;;2.38;;
26906;SDS011;14472;56.880;16.658;2023-08-12T01:52:21;5.60;;;2.72;;
26906;SDS011;14472;56.880;16.658;2023-08-12T01:54:47;2.72;;;2.38;;
26906;SDS011;14472;56.880;16.658;2023-08-12T01:57:13;4.50;;;2.58;;
26906;SDS011;14472;56.880;16.658;2023-08-12T01:59:39;4.82;;;2.92;;
26906;SDS011;14472;56.880;16.658;2023-08-12T02:02:05;3.00;;;2.63;;
26906;SDS011;14472;56.880;16.658;2023-08-12T02:04:30;2.90;;;2.47;;
26906;SDS011;14472;56.880;16.658;2023-08-12T02:06:56;4.28;;;2.88;;
26906;SDS011;14472;56.880;16.658;2023-08-12T02:09:22;3.58;;;2.60;;
26906;SDS011;14472;56.880;16.658;2023-08-12T02:11:49;3.25;;;2.90;;
26906;SDS011;14472;56.880;16.658;2023-08-12T02:14:15;3.63;;;2.42;;
26906;SDS011;14472;56.880;16.658;2023-08-12T02:16:41;2.97;;;2.65;;
26906;SDS011;14472;56.880;16.658;2023-08-12T02:19:06;2.78;;;2.53;;
26906;SDS011;14472;56.880;16.658;2023-08-12T02:21:32;3.55;;;2.70;;
26906;SDS011;14472;56.880;16.658;2023-08-12T02:23:58;3.40;;;2.53;;
26906;SDS011;14472;56.880;16.658;2023-08-12T02:26:24;3.47;;;2.72;;
26906;SDS011;14472;56.880;16.658;2023-08-12T02:28:49;4.10;;;2.33;;
26906;SDS011;14472;56.880;16.658;2023-08-12T02:31:15;2.65;;;2.40;;
26906;SDS011;14472;56.880;16.658;2023-08-12T02:33:41;3.92;;;2.33;;
26906;SDS011;14472;56.880;16.658;2023-08-12T02:36:07;3.60;;;2.90;;
26906;SDS011;14472;56.880;16.658;2023-08-12T02:38:33;4.68;;;2.70;;
26906;SDS011;14472;56.880;16.658;2023-08-12T02:40:59;3.00;;;2.70;;
26906;SDS011;14472;56.880;16.658;2023-08-12T02:43:25;3.35;;;2.50;;
26906;SDS011;14472;56.880;16.658;2023-08-12T02:45:51;2.92;;;2.65;;
26906;SDS011;14472;56.880;16.658;2023-08-12T02:48:17;2.92;;;2.40;;
26906;SDS011;14472;56.880;16.658;2023-08-12T02:50:43;3.42;;;2.67;;
26906;SDS011;14472;56.880;16.658;2023-08-12T02:53:09;3.65;;;2.50;;
26906;SDS011;14472;56.880;16.658;2023-08-12T02:55:35;4.70;;;2.92;;
26906;SDS011;14472;56.880;16.658;2023-08-12T02:58:02;3.33;;;2.65;;
26906;SDS011;14472;56.880;16.658;2023-08-12T03:00:29;4.03;;;3.35;;
26906;SDS011;14472;56.880;16.658;2023-08-12T03:02:54;5.47;;;3.50;;
26906;SDS011;14472;56.880;16.658;2023-08-12T03:05:20;3.60;;;3.13;;
26906;SDS011;14472;56.880;16.658;2023-08-12T03:07:47;4.75;;;3.05;;
26906;SDS011;14472;56.880;16.658;2023-08-12T03:10:13;4.22;;;3.15;;
26906;SDS011;14472;56.880;16.658;2023-08-12T03:12:38;3.90;;;3.35;;
26906;SDS011;14472;56.880;16.658;2023-08-12T03:15:07;4.07;;;3.30;;
26906;SDS011;14472;56.880;16.658;2023-08-12T03:17:33;5.20;;;3.10;;
26906;SDS011;14472;56.880;16.658;2023-08-12T03:19:59;4.95;;;3.00;;
26906;SDS011;14472;56.880;16.658;2023-08-12T03:22:26;4.88;;;3.47;;
26906;SDS011;14472;56.880;16.658;2023-08-12T03:24:52;4.10;;;3.42;;
26906;SDS011;14472;56.880;16.658;2023-08-12T03:27:18;3.50;;;3.20;;
26906;SDS011;14472;56.880;16.658;2023-08-12T03:29:44;4.45;;;2.90;;
26906;SDS011;14472;56.880;16.658;2023-08-12T03:32:09;4.85;;;3.13;;
26906;SDS011;14472;56.880;16.658;2023-08-12T03:34:35;5.40;;;3.15;;
26906;SDS011;14472;56.880;16.658;2023-08-12T03:37:01;5.32;;;3.17;;
26906;SDS011;14472;56.880;16.658;2023-08-12T03:39:27;4.00;;;3.05;;
26906;SDS011;14472;56.880;16.658;2023-08-12T03:41:53;6.13;;;3.20;;
26906;SDS011;14472;56.880;16.658;2023-08-12T03:44:18;3.95;;;3.03;;
26906;SDS011;14472;56.880;16.658;2023-08-12T03:46:44;6.60;;;3.50;;
26906;SDS011;14472;56.880;16.658;2023-08-12T03:49:10;5.10;;;3.10;;
26906;SDS011;14472;56.880;16.658;2023-08-12T03:51:36;4.30;;;3.20;;
26906;SDS011;14472;56.880;16.658;2023-08-12T03:54:01;3.55;;;3.22;;
26906;SDS011;14472;56.880;16.658;2023-08-12T03:56:28;4.15;;;3.55;;
26906;SDS011;14472;56.880;16.658;2023-08-12T03:58:54;7.65;;;3.83;;
26906;SDS011;14472;56.880;16.658;2023-08-12T04:01:20;5.65;;;3.55;;
26906;SDS011;14472;56.880;16.658;2023-08-12T04:03:46;5.38;;;3.38;;
26906;SDS011;14472;56.880;16.658;2023-08-12T04:06:12;5.43;;;3.75;;
26906;SDS011;14472;56.880;16.658;2023-08-12T04:08:38;4.47;;;3.78;;
26906;SDS011;14472;56.880;16.658;2023-08-12T04:11:04;4.50;;;3.92;;
26906;SDS011;14472;56.880;16.658;2023-08-12T04:13:29;5.68;;;3.90;;
26906;SDS011;14472;56.880;16.658;2023-08-12T04:15:55;5.90;;;3.80;;
26906;SDS011;14472;56.880;16.658;2023-08-12T04:18:21;4.38;;;3.80;;
26906;SDS011;14472;56.880;16.658;2023-08-12T04:20:51;4.88;;;3.88;;
26906;SDS011;14472;56.880;16.658;2023-08-12T04:23:18;5.60;;;3.60;;
26906;SDS011;14472;56.880;16.658;2023-08-12T04:25:44;5.15;;;3.90;;
26906;SDS011;14472;56.880;16.658;2023-08-12T04:28:11;5.78;;;4.10;;
26906;SDS011;14472;56.880;16.658;2023-08-12T04:30:41;6.88;;;4.40;;
26906;SDS011;14472;56.880;16.658;2023-08-12T04:33:07;5.68;;;3.97;;
26906;SDS011;14472;56.880;16.658;2023-08-12T04:35:33;8.20;;;4.47;;
26906;SDS011;14472;56.880;16.658;2023-08-12T04:37:59;7.18;;;4.18;;
26906;SDS011;14472;56.880;16.658;2023-08-12T04:40:25;7.22;;;4.38;;
26906;SDS011;14472;56.880;16.658;2023-08-12T04:42:51;6.47;;;5.00;;
26906;SDS011;14472;56.880;16.658;2023-08-12T04:45:16;5.30;;;4.60;;
26906;SDS011;14472;56.880;16.658;2023-08-12T04:47:42;6.72;;;4.78;;
26906;SDS011;14472;56.880;16.658;2023-08-12T04:50:08;5.30;;;4.85;;
26906;SDS011;14472;56.880;16.658;2023-08-12T04:52:34;7.15;;;5.15;;
26906;SDS011;14472;56.880;16.658;2023-08-12T04:54:59;7.03;;;5.22;;
26906;SDS011;14472;56.880;16.658;2023-08-12T04:57:25;6.72;;;5.63;;
26906;SDS011;14472;56.880;16.658;2023-08-12T04:59:51;5.82;;;5.25;;
26906;SDS011;14472;56.880;16.658;2023-08-12T05:02:18;7.35;;;5.22;;
26906;SDS011;14472;56.880;16.658;2023-08-12T05:04:48;6.72;;;5.05;;
26906;SDS011;14472;56.880;16.658;2023-08-12T05:07:15;5.38;;;4.90;;
26906;SDS011;14472;56.880;16.658;2023-08-12T05:09:41;5.15;;;4.65;;
26906;SDS011;14472;56.880;16.658;2023-08-12T05:12:10;6.00;;;4.43;;
26906;SDS011;14472;56.880;16.658;2023-08-12T05:14:37;5.45;;;4.70;;
26906;SDS011;14472;56.880;16.658;2023-08-12T05:17:04;5.95;;;4.30;;
26906;SDS011;14472;56.880;16.658;2023-08-12T05:19:30;5.68;;;4.85;;
26906;SDS011;14472;56.880;16.658;2023-08-12T05:21:56;8.25;;;5.15;;
26906;SDS011;14472;56.880;16.658;2023-08-12T05:24:22;5.88;;;4.53;;
26906;SDS011;14472;56.880;16.658;2023-08-12T05:26:48;6.43;;;4.40;;
26906;SDS011;14472;56.880;16.658;2023-08-12T05:29:13;6.65;;;4.60;;
26906;SDS011;14472;56.880;16.658;2023-08-12T05:31:39;6.03;;;4.40;;
26906;SDS011;14472;56.880;16.658;2023-08-12T05:34:05;6.97;;;4.50;;
26906;SDS011;14472;56.880;16.658;2023-08-12T05:36:31;5.82;;;4.30;;
26906;SDS011;14472;56.880;16.658;2023-08-12T05:38:56;6.90;;;4.93;;
26906;SDS011;14472;56.880;16.658;2023-08-12T05:41:22;5.28;;;4.68;;
26906;SDS011;14472;56.880;16.658;2023-08-12T05:43:48;6.07;;;5.10;;
26906;SDS011;14472;56.880;16.658;2023-08-12T05:46:14;6.82;;;5.13;;
26906;SDS011;14472;56.880;16.658;2023-08-12T05:48:40;8.73;;;4.97;;
26906;SDS011;14472;56.880;16.658;2023-08-12T05:51:06;5.68;;;4.55;;
26906;SDS011;14472;56.880;16.658;2023-08-12T05:53:31;7.32;;;4.68;;
26906;SDS011;14472;56.880;16.658;2023-08-12T05:55:58;5.78;;;4.80;;
26906;SDS011;14472;56.880;16.658;2023-08-12T05:58:23;7.65;;;4.80;;
26906;SDS011;14472;56.880;16.658;2023-08-12T06:00:49;7.43;;;4.25;;
26906;SDS011;14472;56.880;16.658;2023-08-12T06:03:15;5.47;;;4.93;;
26906;SDS011;14472;56.880;16.658;2023-08-12T06:05:43;6.22;;;4.60;;
26906;SDS011;14472;56.880;16.658;2023-08-12T06:08:10;5.70;;;5.20;;
26906;SDS011;14472;56.880;16.658;2023-08-12T06:10:36;7.95;;;4.28;;
26906;SDS011;14472;56.880;16.658;2023-08-12T06:13:02;8.02;;;4.05;;
26906;SDS011;14472;56.880;16.658;2023-08-12T06:15:28;5.60;;;3.15;;
26906;SDS011;14472;56.880;16.658;2023-08-12T06:17:54;3.78;;;3.28;;
26906;SDS011;14472;56.880;16.658;2023-08-12T06:20:20;3.65;;;3.05;;
26906;SDS011;14472;56.880;16.658;2023-08-12T06:22:45;4.60;;;2.60;;
26906;SDS011;14472;56.880;16.658;2023-08-12T06:25:11;4.03;;;2.42;;
26906;SDS011;14472;56.880;16.658;2023-08-12T06:27:37;4.82;;;2.38;;
26906;SDS011;14472;56.880;16.658;2023-08-12T06:30:04;5.50;;;2.20;;
26906;SDS011;14472;56.880;16.658;2023-08-12T06:32:31;2.92;;;2.00;;
26906;SDS011;14472;56.880;16.658;2023-08-12T06:34:58;3.20;;;1.80;;
26906;SDS011;14472;56.880;16.658;2023-08-12T06:37:24;3.85;;;2.03;;
26906;SDS011;14472;56.880;16.658;2023-08-12T06:39:50;2.53;;;1.88;;
26906;SDS011;14472;56.880;16.658;2023-08-12T06:42:15;3.90;;;1.98;;
26906;SDS011;14472;56.880;16.658;2023-08-12T06:44:41;3.97;;;1.70;;
26906;SDS011;14472;56.880;16.658;2023-08-12T06:47:07;2.60;;;1.85;;
26906;SDS011;14472;56.880;16.658;2023-08-12T06:49:32;2.63;;;1.80;;
26906;SDS011;14472;56.880;16.658;2023-08-12T06:51:58;5.53;;;1.92;;
26906;SDS011;14472;56.880;16.658;2023-08-12T06:54:24;4.65;;;1.83;;
26906;SDS011;14472;56.880;16.658;2023-08-12T06:56:50;3.42;;;1.70;;
26906;SDS011;14472;56.880;16.658;2023-08-12T06:59:16;3.13;;;1.50;;
26906;SDS011;14472;56.880;16.658;2023-08-12T07:01:42;2.05;;;1.70;;
26906;SDS011;14472;56.880;16.658;2023-08-12T07:04:08;3.28;;;1.83;;
26906;SDS011;14472;56.880;16.658;2023-08-12T07:06:33;3.47;;;1.50;;
26906;SDS011;14472;56.880;16.658;2023-08-12T07:08:59;3.25;;;1.50;;
26906;SDS011;14472;56.880;16.658;2023-08-12T07:11:25;2.83;;;1.55;;
26906;SDS011;14472;56.880;16.658;2023-08-12T07:13:50;4.40;;;1.60;;
26906;SDS011;14472;56.880;16.658;2023-08-12T07:16:16;2.58;;;1.30;;
26906;SDS011;14472;56.880;16.658;2023-08-12T07:18:42;2.08;;;1.40;;
26906;SDS011;14472;56.880;16.658;2023-08-12T07:21:08;3.70;;;1.80;;
26906;SDS011;14472;56.880;16.658;2023-08-12T07:23:34;4.53;;;1.80;;
26906;SDS011;14472;56.880;16.658;2023-08-12T07:25:59;2.63;;;1.50;;
26906;SDS011;14472;56.880;16.658;2023-08-12T07:28:25;1.85;;;1.40;;
26906;SDS011;14472;56.880;16.658;2023-08-12T07:30:51;3.38;;;1.67;;
26906;SDS011;14472;56.880;16.658;2023-08-12T07:33:17;3.47;;;1.38;;
26906;SDS011;14472;56.880;16.658;2023-08-12T07:35:45;5.97;;;1.40;;
26906;SDS011;14472;56.880;16.658;2023-08-12T07:38:10;4.03;;;1.83;;
26906;SDS011;14472;56.880;16.658;2023-08-12T07:40:36;2.38;;;1.42;;
26906;SDS011;14472;56.880;16.658;2023-08-12T07:43:02;2.65;;;1.25;;
26906;SDS011;14472;56.880;16.658;2023-08-12T07:45:28;5.68;;;1.70;;
26906;SDS011;14472;56.880;16.658;2023-08-12T07:47:54;1.98;;;1.48;;
26906;SDS011;14472;56.880;16.658;2023-08-12T07:50:20;3.05;;;1.25;;
26906;SDS011;14472;56.880;16.658;2023-08-12T07:52:45;3.08;;;1.45;;
26906;SDS011;14472;56.880;16.658;2023-08-12T07:55:11;2.67;;;1.60;;
26906;SDS011;14472;56.880;16.658;2023-08-12T07:57:37;2.13;;;1.30;;
26906;SDS011;14472;56.880;16.658;2023-08-12T08:00:03;1.73;;;1.58;;
26906;SDS011;14472;56.880;16.658;2023-08-12T08:02:30;1.52;;;1.38;;
26906;SDS011;14472;56.880;16.658;2023-08-12T08:04:56;1.45;;;1.10;;
26906;SDS011;14472;56.880;16.658;2023-08-12T08:07:21;3.67;;;1.30;;
26906;SDS011;14472;56.880;16.658;2023-08-12T08:09:47;2.35;;;1.40;;
26906;SDS011;14472;56.880;16.658;2023-08-12T08:12:13;2.28;;;1.33;;
26906;SDS011;14472;56.880;16.658;2023-08-12T08:14:38;2.72;;;1.17;;
26906;SDS011;14472;56.880;16.658;2023-08-12T08:17:04;1.58;;;1.10;;
26906;SDS011;14472;56.880;16.658;2023-08-12T08:19:31;3.05;;;1.10;;
26906;SDS011;14472;56.880;16.658;2023-08-12T08:21:57;1.85;;;1.33;;
26906;SDS011;14472;56.880;16.658;2023-08-12T08:24:23;1.65;;;1.08;;
26906;SDS011;14472;56.880;16.658;2023-08-12T08:26:49;2.97;;;1.20;;
26906;SDS011;14472;56.880;16.658;2023-08-12T08:29:15;2.20;;;1.40;;
26906;SDS011;14472;56.880;16.658;2023-08-12T08:31:40;2.60;;;1.20;;
26906;SDS011;14472;56.880;16.658;2023-08-12T08:34:06;1.60;;;1.10;;
26906;SDS011;14472;56.880;16.658;2023-08-12T08:36:32;3.15;;;1.38;;
26906;SDS011;14472;56.880;16.658;2023-08-12T08:38:57;2.88;;;1.30;;
26906;SDS011;14472;56.880;16.658;2023-08-12T08:41:23;4.32;;;1.35;;
26906;SDS011;14472;56.880;16.658;2023-08-12T08:43:50;1.73;;;1.20;;
26906;SDS011;14472;56.880;16.658;2023-08-12T08:46:19;2.30;;;1.30;;
26906;SDS011;14472;56.880;16.658;2023-08-12T08:48:45;3.13;;;1.13;;
26906;SDS011;14472;56.880;16.658;2023-08-12T08:51:13;2.13;;;1.33;;
26906;SDS011;14472;56.880;16.658;2023-08-12T08:53:40;5.72;;;1.65;;
26906;SDS011;14472;56.880;16.658;2023-08-12T08:56:06;4.03;;;1.30;;
26906;SDS011;14472;56.880;16.658;2023-08-12T08:58:33;2.05;;;1.20;;
26906;SDS011;14472;56.880;16.658;2023-08-12T09:00:59;2.45;;;1.30;;
26906;SDS011;14472;56.880;16.658;2023-08-12T09:03:26;3.03;;;1.30;;
26906;SDS011;14472;56.880;16.658;2023-08-12T09:05:53;3.20;;;1.20;;
26906;SDS011;14472;56.880;16.658;2023-08-12T09:08:21;3.03;;;1.10;;
26906;SDS011;14472;56.880;16.658;2023-08-12T09:10:48;2.08;;;1.30;;
26906;SDS011;14472;56.880;16.658;2023-08-12T09:13:14;2.80;;;0.93;;
26906;SDS011;14472;56.880;16.658;2023-08-12T09:15:42;1.92;;;1.40;;
26906;SDS011;14472;56.880;16.658;2023-08-12T09:18:08;3.15;;;1.30;;
26906;SDS011;14472;56.880;16.658;2023-08-12T09:20:34;1.42;;;1.30;;
26906;SDS011;14472;56.880;16.658;2023-08-12T09:23:02;5.15;;;1.60;;
26906;SDS011;14472;56.880;16.658;2023-08-12T09:25:28;2.55;;;1.20;;
26906;SDS011;14472;56.880;16.658;2023-08-12T09:27:55;2.28;;;1.05;;
26906;SDS011;14472;56.880;16.658;2023-08-12T09:30:23;1.95;;;1.27;;
26906;SDS011;14472;56.880;16.658;2023-08-12T09:33:03;3.30;;;1.20;;
26906;SDS011;14472;56.880;16.658;2023-08-12T09:35:36;3.47;;;1.30;;
26906;SDS011;14472;56.880;16.658;2023-08-12T09:38:12;4.63;;;1.50;;
26906;SDS011;14472;56.880;16.658;2023-08-12T09:40:38;1.40;;;1.30;;
26906;SDS011;14472;56.880;16.658;2023-08-12T09:43:05;2.20;;;1.25;;
26906;SDS011;14472;56.880;16.658;2023-08-12T09:45:31;2.85;;;1.30;;
26906;SDS011;14472;56.880;16.658;2023-08-12T09:47:57;1.75;;;1.00;;
26906;SDS011;14472;56.880;16.658;2023-08-12T09:50:24;1.67;;;1.20;;
26906;SDS011;14472;56.880;16.658;2023-08-12T09:52:51;2.65;;;1.30;;
26906;SDS011;14472;56.880;16.658;2023-08-12T09:55:17;3.75;;;1.20;;
26906;SDS011;14472;56.880;16.658;2023-08-12T09:57:47;1.38;;;1.23;;
26906;SDS011;14472;56.880;16.658;2023-08-12T10:00:17;2.15;;;1.30;;
26906;SDS011;14472;56.880;16.658;2023-08-12T10:02:45;2.88;;;1.30;;
26906;SDS011;14472;56.880;16.658;2023-08-12T10:05:12;2.63;;;1.40;;
26906;SDS011;14472;56.880;16.658;2023-08-12T10:07:42;5.45;;;2.03;;
26906;SDS011;14472;56.880;16.658;2023-08-12T10:10:10;3.83;;;1.40;;
26906;SDS011;14472;56.880;16.658;2023-08-12T10:12:38;2.15;;;1.40;;
26906;SDS011;14472;56.880;16.658;2023-08-12T10:15:07;1.63;;;1.20;;
26906;SDS011;14472;56.880;16.658;2023-08-12T10:17:34;1.65;;;1.35;;
26906;SDS011;14472;56.880;16.658;2023-08-12T10:20:02;2.70;;;1.15;;
26906;SDS011;14472;56.880;16.658;2023-08-12T10:22:30;2.67;;;1.30;;
26906;SDS011;14472;56.880;16.658;2023-08-12T10:24:59;1.90;;;1.10;;
26906;SDS011;14472;56.880;16.658;2023-08-12T10:27:27;1.75;;;1.13;;
26906;SDS011;14472;56.880;16.658;2023-08-12T10:29:55;3.17;;;1.38;;
26906;SDS011;14472;56.880;16.658;2023-08-12T10:32:22;2.15;;;1.40;;
26906;SDS011;14472;56.880;16.658;2023-08-12T10:34:53;2.15;;;1.10;;
26906;SDS011;14472;56.880;16.658;2023-08-12T10:37:20;1.33;;;1.15;;
26906;SDS011;14472;56.880;16.658;2023-08-12T10:39:48;3.17;;;1.30;;
26906;SDS011;14472;56.880;16.658;2023-08-12T10:42:23;0.95;;;0.90;;
26906;SDS011;14472;56.880;16.658;2023-08-12T10:45:12;1.55;;;1.00;;
26906;SDS011;14472;56.880;16.658;2023-08-12T10:47:51;2.33;;;1.15;;
26906;SDS011;14472;56.880;16.658;2023-08-12T10:50:43;1.00;;;0.80;;
26906;SDS011;14472;56.880;16.658;2023-08-12T10:53:43;3.47;;;1.27;;
26906;SDS011;14472;56.880;16.658;2023-08-12T10:56:03;1.20;;;1.10;;
26906;SDS011;14472;56.880;16.658;2023-08-12T10:58:46;3.28;;;1.20;;
26906;SDS011;14472;56.880;16.658;2023-08-12T11:01:19;3.05;;;1.10;;
26906;SDS011;14472;56.880;16.658;2023-08-12T11:03:45;1.52;;;1.02;;
26906;SDS011;14472;56.880;16.658;2023-08-12T11:06:13;2.03;;;1.00;;
26906;SDS011;14472;56.880;16.658;2023-08-12T11:08:51;2.00;;;1.15;;
26906;SDS011;14472;56.880;16.658;2023-08-12T11:11:24;1.17;;;1.08;;
26906;SDS011;14472;56.880;16.658;2023-08-12T11:13:54;1.48;;;1.20;;
26906;SDS011;14472;56.880;16.658;2023-08-12T11:16:32;3.22;;;1.20;;
26906;SDS011;14472;56.880;16.658;2023-08-12T11:19:00;2.00;;;1.30;;
26906;SDS011;14472;56.880;16.658;2023-08-12T11:21:27;3.55;;;1.38;;
26906;SDS011;14472;56.880;16.658;2023-08-12T11:23:54;2.03;;;1.02;;
26906;SDS011;14472;56.880;16.658;2023-08-12T11:26:21;1.73;;;1.20;;
26906;SDS011;14472;56.880;16.658;2023-08-12T11:28:48;1.13;;;1.02;;
26906;SDS011;14472;56.880;16.658;2023-08-12T11:31:14;2.15;;;1.00;;
26906;SDS011;14472;56.880;16.658;2023-08-12T11:33:41;3.10;;;1.05;;
26906;SDS011;14472;56.880;16.658;2023-08-12T11:36:07;2.30;;;1.10;;
26906;SDS011;14472;56.880;16.658;2023-08-12T11:38:33;2.22;;;1.23;;
26906;SDS011;14472;56.880;16.658;2023-08-12T11:41:01;1.33;;;1.23;;
26906;SDS011;14472;56.880;16.658;2023-08-12T11:43:32;2.40;;;1.40;;
26906;SDS011;14472;56.880;16.658;2023-08-12T11:45:58;1.65;;;1.40;;
26906;SDS011;14472;56.880;16.658;2023-08-12T11:48:24;1.30;;;1.20;;
26906;SDS011;14472;56.880;16.658;2023-08-12T11:50:52;4.45;;;2.40;;
26906;SDS011;14472;56.880;16.658;2023-08-12T11:53:19;2.25;;;1.30;;
26906;SDS011;14472;56.880;16.658;2023-08-12T11:55:45;2.40;;;1.23;;
26906;SDS011;14472;56.880;16.658;2023-08-12T11:58:13;2.33;;;1.40;;
26906;SDS011;14472;56.880;16.658;2023-08-12T12:00:44;1.73;;;1.10;;
26906;SDS011;14472;56.880;16.658;2023-08-12T12:03:11;2.42;;;1.17;;
26906;SDS011;14472;56.880;16.658;2023-08-12T12:05:37;3.67;;;1.42;;
26906;SDS011;14472;56.880;16.658;2023-08-12T12:08:03;2.47;;;1.13;;
26906;SDS011;14472;56.880;16.658;2023-08-12T12:10:32;1.77;;;1.27;;
26906;SDS011;14472;56.880;16.658;2023-08-12T12:12:58;2.22;;;1.33;;
26906;SDS011;14472;56.880;16.658;2023-08-12T12:15:25;3.15;;;1.30;;
26906;SDS011;14472;56.880;16.658;2023-08-12T12:17:51;3.53;;;1.20;;
26906;SDS011;14472;56.880;16.658;2023-08-12T12:20:17;3.45;;;1.60;;
26906;SDS011;14472;56.880;16.658;2023-08-12T12:22:44;2.67;;;1.15;;
26906;SDS011;14472;56.880;16.658;2023-08-12T12:25:11;1.60;;;1.00;;
26906;SDS011;14472;56.880;16.658;2023-08-12T12:27:39;1.77;;;1.05;;
26906;SDS011;14472;56.880;16.658;2023-08-12T12:30:12;1.45;;;1.05;;
26906;SDS011;14472;56.880;16.658;2023-08-12T12:32:39;2.13;;;1.40;;
26906;SDS011;14472;56.880;16.658;2023-08-12T12:35:05;1.95;;;1.20;;
26906;SDS011;14472;56.880;16.658;2023-08-12T12:37:35;1.75;;;1.10;;
26906;SDS011;14472;56.880;16.658;2023-08-12T12:40:01;1.80;;;1.17;;
26906;SDS011;14472;56.880;16.658;2023-08-12T12:42:28;2.08;;;1.30;;
26906;SDS011;14472;56.880;16.658;2023-08-12T12:44:54;1.80;;;1.30;;
26906;SDS011;14472;56.880;16.658;2023-08-12T12:47:20;1.20;;;1.10;;
26906;SDS011;14472;56.880;16.658;2023-08-12T12:49:46;2.35;;;1.33;;
26906;SDS011;14472;56.880;16.658;2023-08-12T12:52:12;2.10;;;1.40;;
26906;SDS011;14472;56.880;16.658;2023-08-12T12:54:37;2.53;;;1.50;;
26906;SDS011;14472;56.880;16.658;2023-08-12T12:57:03;2.10;;;1.55;;
26906;SDS011;14472;56.880;16.658;2023-08-12T12:59:29;2.00;;;1.50;;
26906;SDS011;14472;56.880;16.658;2023-08-12T13:01:56;2.25;;;1.40;;
26906;SDS011;14472;56.880;16.658;2023-08-12T13:04:22;2.67;;;1.65;;
26906;SDS011;14472;56.880;16.658;2023-08-12T13:06:47;1.92;;;1.40;;
26906;SDS011;14472;56.880;16.658;2023-08-12T13:09:13;2.97;;;1.40;;
26906;SDS011;14472;56.880;16.658;2023-08-12T13:11:39;2.58;;;1.27;;
26906;SDS011;14472;56.880;16.658;2023-08-12T13:14:05;4.38;;;1.40;;
26906;SDS011;14472;56.880;16.658;2023-08-12T13:16:30;2.20;;;1.52;;
26906;SDS011;14472;56.880;16.658;2023-08-12T13:18:56;2.10;;;1.30;;
26906;SDS011;14472;56.880;16.658;2023-08-12T13:21:24;4.22;;;1.85;;
26906;SDS011;14472;56.880;16.658;2023-08-12T13:23:50;2.92;;;1.52;;
26906;SDS011;14472;56.880;16.658;2023-08-12T13:26:16;3.15;;;1.50;;
26906;SDS011;14472;56.880;16.658;2023-08-12T13:28:42;1.98;;;1.30;;
26906;SDS011;14472;56.880;16.658;2023-08-12T13:31:08;1.52;;;1.33;;
26906;SDS011;14472;56.880;16.658;2023-08-12T13:33:34;2.00;;;1.30;;
26906;SDS011;14472;56.880;16.658;2023-08-12T13:36:00;2.88;;;1.40;;
26906;SDS011;14472;56.880;16.658;2023-08-12T13:38:26;2.20;;;1.20;;
26906;SDS011;14472;56.880;16.658;2023-08-12T13:40:52;3.50;;;1.48;;
26906;SDS011;14472;56.880;16.658;2023-08-12T13:43:17;3.15;;;1.50;;
26906;SDS011;14472;56.880;16.658;2023-08-12T13:45:43;3.47;;;1.70;;
26906;SDS011;14472;56.880;16.658;2023-08-12T13:48:09;2.88;;;1.60;;
26906;SDS011;14472;56.880;16.658;2023-08-12T13:50:34;3.33;;;1.80;;
26906;SDS011;14472;56.880;16.658;2023-08-12T13:53:01;4.70;;;1.95;;
26906;SDS011;14472;56.880;16.658;2023-08-12T13:55:27;1.92;;;1.58;;
26906;SDS011;14472;56.880;16.658;2023-08-12T13:57:53;3.38;;;1.63;;
26906;SDS011;14472;56.880;16.658;2023-08-12T14:00:19;2.60;;;1.52;;
26906;SDS011;14472;56.880;16.658;2023-08-12T14:02:45;2.10;;;1.40;;
26906;SDS011;14472;56.880;16.658;2023-08-12T14:05:13;3.60;;;2.00;;
26906;SDS011;14472;56.880;16.658;2023-08-12T14:07:39;3.10;;;1.75;;
26906;SDS011;14472;56.880;16.658;2023-08-12T14:10:06;4.10;;;1.90;;
26906;SDS011;14472;56.880;16.658;2023-08-12T14:12:32;2.15;;;1.63;;
26906;SDS011;14472;56.880;16.658;2023-08-12T14:14:58;2.65;;;1.77;;
26906;SDS011;14472;56.880;16.658;2023-08-12T14:17:23;3.15;;;1.70;;
26906;SDS011;14472;56.880;16.658;2023-08-12T14:19:51;2.38;;;1.60;;
26906;SDS011;14472;56.880;16.658;2023-08-12T14:22:17;5.03;;;1.80;;
26906;SDS011;14472;56.880;16.658;2023-08-12T14:24:43;4.20;;;1.77;;
26906;SDS011;14472;56.880;16.658;2023-08-12T14:27:13;3.15;;;1.98;;
26906;SDS011;14472;56.880;16.658;2023-08-12T14:29:43;3.30;;;1.90;;
26906;SDS011;14472;56.880;16.658;2023-08-12T14:32:08;5.35;;;1.98;;
26906;SDS011;14472;56.880;16.658;2023-08-12T14:34:34;3.33;;;2.03;;